createdAt,value
2018-12-11T00:01:27.290Z,3.40
2018-12-11T00:03:54.789Z,3.40
2018-12-11T00:06:22.413Z,3.50
2018-12-11T00:08:50.044Z,3.50
2018-12-11T00:11:17.614Z,3.50
2018-12-11T00:13:45.125Z,3.50
2018-12-11T00:16:12.708Z,3.50
2018-12-11T00:18:40.213Z,3.50
2018-12-11T00:21:07.736Z,3.50
2018-12-11T00:23:35.244Z,3.60
2018-12-11T00:26:02.851Z,3.60
2018-12-11T00:28:30.512Z,3.60
2018-12-11T00:30:58.002Z,3.50
2018-12-11T00:33:25.605Z,3.50
2018-12-11T00:35:53.218Z,3.50
2018-12-11T00:38:20.709Z,3.50
2018-12-11T00:40:48.220Z,3.50
2018-12-11T00:43:15.719Z,3.50
2018-12-11T00:45:43.213Z,3.40
2018-12-11T00:48:10.729Z,3.40
2018-12-11T00:50:38.241Z,3.40
2018-12-11T00:53:05.824Z,3.40
2018-12-11T00:55:33.385Z,3.40
2018-12-11T00:58:00.907Z,3.40
2018-12-11T01:00:28.397Z,3.40
2018-12-11T01:02:55.885Z,3.40
2018-12-11T01:05:23.585Z,3.40
2018-12-11T01:07:51.256Z,3.40
2018-12-11T01:10:19.010Z,3.40
2018-12-11T01:12:46.571Z,3.40
2018-12-11T01:15:14.064Z,3.30
2018-12-11T01:17:41.597Z,3.30
2018-12-11T01:20:09.309Z,3.30
2018-12-11T01:22:36.793Z,3.30
2018-12-11T01:25:05.160Z,3.40
2018-12-11T01:27:32.750Z,3.40
2018-12-11T01:30:00.400Z,3.40
2018-12-11T01:32:27.920Z,3.40
2018-12-11T01:34:55.621Z,3.40
2018-12-11T01:37:23.101Z,3.40
2018-12-11T01:39:50.601Z,3.40
2018-12-11T01:42:18.110Z,3.40
2018-12-11T01:44:45.631Z,3.50
2018-12-11T01:47:13.116Z,3.50
2018-12-11T01:49:40.725Z,3.50
2018-12-11T01:52:08.240Z,3.50
2018-12-11T01:54:35.989Z,3.50
2018-12-11T01:57:03.656Z,3.50
2018-12-11T01:59:31.253Z,3.50
2018-12-11T02:01:58.973Z,3.50
2018-12-11T02:04:26.533Z,3.50
2018-12-11T02:06:54.088Z,3.40
2018-12-11T02:09:21.750Z,3.40
2018-12-11T02:11:49.328Z,3.50
2018-12-11T02:14:16.869Z,3.50
2018-12-11T02:16:44.530Z,3.50
2018-12-11T02:19:12.087Z,3.40
2018-12-11T02:21:42.142Z,3.40
2018-12-11T02:24:09.154Z,3.40
2018-12-11T02:26:36.648Z,3.50
2018-12-11T02:29:04.158Z,3.40
2018-12-11T02:31:31.674Z,3.40
2018-12-11T02:33:59.174Z,3.40
2018-12-11T02:36:26.689Z,3.40
2018-12-11T02:38:54.202Z,3.40
2018-12-11T02:41:21.697Z,3.30
2018-12-11T02:43:49.210Z,3.30
2018-12-11T02:46:16.721Z,3.30
2018-12-11T02:48:44.222Z,3.20
2018-12-11T02:51:11.749Z,3.20
2018-12-11T02:53:39.260Z,3.20
2018-12-11T02:56:07.108Z,3.10
2018-12-11T02:58:34.666Z,3.10
2018-12-11T03:01:02.164Z,3.10
2018-12-11T03:03:29.759Z,3.10
2018-12-11T03:05:57.262Z,3.10
2018-12-11T03:08:24.761Z,3.00
2018-12-11T03:10:52.277Z,3.00
2018-12-11T03:13:19.772Z,3.00
2018-12-11T03:15:47.419Z,3.00
2018-12-11T03:18:15.035Z,3.00
2018-12-11T03:20:42.594Z,3.00
2018-12-11T03:23:10.078Z,2.90
2018-12-11T03:25:37.652Z,3.00
2018-12-11T03:28:05.269Z,3.00
2018-12-11T03:30:32.950Z,2.90
2018-12-11T03:33:00.695Z,2.90
2018-12-11T03:35:28.277Z,2.90
2018-12-11T03:37:55.809Z,2.80
2018-12-11T03:40:23.315Z,2.90
2018-12-11T03:42:50.837Z,2.80
2018-12-11T03:45:18.353Z,2.80
2018-12-11T03:47:45.857Z,2.80
2018-12-11T03:50:13.605Z,2.80
2018-12-11T03:52:41.165Z,2.80
2018-12-11T03:55:08.754Z,2.80
2018-12-11T03:57:36.293Z,2.80
2018-12-11T04:00:04.992Z,2.80
2018-12-11T04:02:32.497Z,2.80
2018-12-11T04:05:00.012Z,2.80
2018-12-11T04:07:27.509Z,2.80
2018-12-11T04:09:55.098Z,2.80
2018-12-11T04:12:22.768Z,2.80
2018-12-11T04:14:50.466Z,2.80
2018-12-11T04:17:18.273Z,2.80
2018-12-11T04:19:45.770Z,2.80
2018-12-11T04:22:13.364Z,2.80
2018-12-11T04:24:40.962Z,2.80
2018-12-11T04:27:08.469Z,2.90
2018-12-11T04:29:35.975Z,2.90
2018-12-11T04:32:03.481Z,2.90
2018-12-11T04:34:31.021Z,2.90
2018-12-11T04:36:58.653Z,3.00
2018-12-11T04:39:26.215Z,3.00
2018-12-11T04:41:53.788Z,3.00
2018-12-11T04:44:21.351Z,3.00
2018-12-11T04:46:48.853Z,3.10
2018-12-11T04:49:16.364Z,3.10
2018-12-11T04:51:43.891Z,3.10
2018-12-11T04:54:11.413Z,3.10
2018-12-11T04:56:38.944Z,3.10
2018-12-11T04:59:06.578Z,3.10
2018-12-11T05:01:34.241Z,3.10
2018-12-11T05:04:01.814Z,3.00
2018-12-11T05:06:29.334Z,3.00
2018-12-11T05:08:56.852Z,3.00
2018-12-11T05:11:24.438Z,3.00
2018-12-11T05:13:52.005Z,3.00
2018-12-11T05:16:19.608Z,3.10
2018-12-11T05:18:47.254Z,3.10
2018-12-11T05:21:14.865Z,3.10
2018-12-11T05:23:42.352Z,3.10
2018-12-11T05:26:10.032Z,3.20
2018-12-11T05:28:37.525Z,3.20
2018-12-11T05:31:05.149Z,3.10
2018-12-11T05:33:32.730Z,3.10
2018-12-11T05:36:00.397Z,3.10
2018-12-11T05:38:28.031Z,3.10
2018-12-11T05:40:55.588Z,3.10
2018-12-11T05:43:23.249Z,3.00
2018-12-11T05:45:50.760Z,3.00
2018-12-11T05:48:18.313Z,3.00
2018-12-11T05:50:45.837Z,3.00
2018-12-11T05:53:13.373Z,3.00
2018-12-11T05:55:40.980Z,3.00
2018-12-11T05:58:08.498Z,3.00
2018-12-11T06:00:36.013Z,3.00
2018-12-11T06:03:03.719Z,3.00
2018-12-11T06:05:31.225Z,3.00
2018-12-11T06:07:58.720Z,3.00
2018-12-11T06:10:26.238Z,3.00
2018-12-11T06:12:53.749Z,3.00
2018-12-11T06:15:21.244Z,3.00
2018-12-11T06:17:48.767Z,2.90
2018-12-11T06:20:16.243Z,2.90
2018-12-11T06:22:43.781Z,2.90
2018-12-11T06:25:11.246Z,2.90
2018-12-11T06:27:38.844Z,2.90
2018-12-11T06:30:08.300Z,2.90
2018-12-11T06:32:36.076Z,2.90
2018-12-11T06:35:03.981Z,2.90
2018-12-11T06:37:31.500Z,2.90
2018-12-11T06:39:59.016Z,3.00
2018-12-11T06:42:26.521Z,3.00
2018-12-11T06:44:54.060Z,3.00
2018-12-11T06:47:21.549Z,3.10
2018-12-11T06:49:49.145Z,3.10
2018-12-11T06:52:16.741Z,3.10
2018-12-11T06:54:44.258Z,3.00
2018-12-11T06:57:11.775Z,3.00
2018-12-11T06:59:39.268Z,3.00
2018-12-11T07:02:06.927Z,3.00
2018-12-11T07:04:34.455Z,3.00
2018-12-11T07:07:02.088Z,3.00
2018-12-11T07:09:29.585Z,2.90
2018-12-11T07:11:57.111Z,2.90
2018-12-11T07:14:24.616Z,3.00
2018-12-11T07:16:52.326Z,3.00
2018-12-11T07:19:19.813Z,3.00
2018-12-11T07:21:47.363Z,3.00
2018-12-11T07:24:14.989Z,3.00
2018-12-11T07:26:42.582Z,3.00
2018-12-11T07:29:10.136Z,3.00
2018-12-11T07:31:37.649Z,3.00
2018-12-11T07:34:05.168Z,3.00
2018-12-11T07:36:32.791Z,3.00
2018-12-11T07:39:00.479Z,3.00
2018-12-11T07:41:27.992Z,2.90
2018-12-11T07:43:55.497Z,2.90
2018-12-11T07:46:23.004Z,2.90
2018-12-11T07:48:50.526Z,2.90
2018-12-11T07:51:18.052Z,2.90
2018-12-11T07:53:45.551Z,2.90
2018-12-11T07:56:13.362Z,2.90
2018-12-11T07:58:41.001Z,2.90
2018-12-11T08:01:08.685Z,2.90
2018-12-11T08:03:36.165Z,2.90
2018-12-11T08:06:03.802Z,2.90
2018-12-11T08:08:31.309Z,2.90
2018-12-11T08:10:58.949Z,2.90
2018-12-11T08:13:26.499Z,3.00
2018-12-11T08:15:54.008Z,3.00
2018-12-11T08:18:21.636Z,3.00
2018-12-11T08:20:49.164Z,3.10
2018-12-11T08:23:16.777Z,3.10
2018-12-11T08:25:44.375Z,3.10
2018-12-11T08:28:11.857Z,3.20
2018-12-11T08:30:39.416Z,3.20
2018-12-11T08:33:07.041Z,3.20
2018-12-11T08:35:34.643Z,3.20
2018-12-11T08:38:02.373Z,3.20
2018-12-11T08:40:29.858Z,3.20
2018-12-11T08:42:57.465Z,3.20
2018-12-11T08:45:25.026Z,3.30
2018-12-11T08:47:52.708Z,3.30
2018-12-11T08:50:20.273Z,3.30
2018-12-11T08:52:47.825Z,3.30
2018-12-11T08:55:15.497Z,3.30
2018-12-11T08:57:43.113Z,3.30
2018-12-11T09:00:10.818Z,3.30
2018-12-11T09:02:38.316Z,3.40
2018-12-11T09:05:05.931Z,3.30
2018-12-11T09:07:33.425Z,3.30
2018-12-11T09:10:01.049Z,3.30
2018-12-11T09:12:28.561Z,3.30
2018-12-11T09:14:56.061Z,3.30
2018-12-11T09:17:23.646Z,3.30
2018-12-11T09:19:51.184Z,3.30
2018-12-11T09:22:18.669Z,3.30
2018-12-11T09:24:46.209Z,3.30
2018-12-11T09:27:13.721Z,3.40
2018-12-11T09:29:41.243Z,3.50
2018-12-11T09:32:08.828Z,3.60
2018-12-11T09:34:36.328Z,3.60
2018-12-11T09:37:03.845Z,3.70
2018-12-11T09:39:31.456Z,3.70
2018-12-11T09:41:59.001Z,3.70
2018-12-11T09:44:26.528Z,3.70
2018-12-11T09:46:54.119Z,3.80
2018-12-11T09:49:21.634Z,3.80
2018-12-11T09:51:49.148Z,3.80
2018-12-11T09:54:16.640Z,3.90
2018-12-11T09:56:44.153Z,3.90
2018-12-11T09:59:11.712Z,3.90
2018-12-11T10:01:39.200Z,3.90
2018-12-11T10:04:06.876Z,3.90
2018-12-11T10:06:34.383Z,4.00
2018-12-11T10:09:01.866Z,4.00
2018-12-11T10:11:29.516Z,4.00
2018-12-11T10:13:57.025Z,4.00
2018-12-11T10:16:24.541Z,4.00
2018-12-11T10:18:52.069Z,4.00
2018-12-11T10:21:19.829Z,4.00
2018-12-11T10:23:47.620Z,4.00
2018-12-11T10:26:15.125Z,4.10
2018-12-11T10:28:42.626Z,4.10
2018-12-11T10:33:33.776Z,4.10
2018-12-11T10:36:01.403Z,4.00
2018-12-11T10:38:29.008Z,4.00
2018-12-11T10:40:56.576Z,4.10
2018-12-11T10:43:24.117Z,4.20
2018-12-11T10:45:51.649Z,4.30
2018-12-11T10:48:19.196Z,4.50
2018-12-11T10:50:46.697Z,4.70
2018-12-11T10:53:14.209Z,4.70
2018-12-11T10:55:41.704Z,4.70
2018-12-11T10:58:09.322Z,4.60
2018-12-11T11:00:42.657Z,4.60
2018-12-11T11:03:10.181Z,4.60
2018-12-11T11:05:37.665Z,4.60
2018-12-11T11:08:05.193Z,4.60
2018-12-11T11:10:32.668Z,4.70
2018-12-11T11:13:00.312Z,4.70
2018-12-11T11:15:27.997Z,4.80
2018-12-11T11:17:55.492Z,4.70
2018-12-11T11:20:23.013Z,4.80
2018-12-11T11:22:50.509Z,4.80
2018-12-11T11:25:18.109Z,4.80
2018-12-11T11:27:45.668Z,4.80
2018-12-11T11:30:13.209Z,4.70
2018-12-11T11:32:40.705Z,4.70
2018-12-11T11:35:08.281Z,4.70
2018-12-11T11:37:35.913Z,4.70
2018-12-11T11:40:04.481Z,4.70
2018-12-11T11:42:32.208Z,4.80
2018-12-11T11:44:59.849Z,4.80
2018-12-11T11:47:27.474Z,4.80
2018-12-11T11:49:54.990Z,4.80
2018-12-11T11:52:22.512Z,4.80
2018-12-11T11:54:50.005Z,4.80
2018-12-11T11:57:17.608Z,4.80
2018-12-11T11:59:45.096Z,4.80
2018-12-11T12:02:12.747Z,4.80
2018-12-11T12:04:40.276Z,4.80
2018-12-11T12:07:07.989Z,4.80
2018-12-11T12:09:35.595Z,4.80
2018-12-11T12:12:03.269Z,4.80
2018-12-11T12:14:30.763Z,4.70
2018-12-11T12:16:58.277Z,4.70
2018-12-11T12:19:25.784Z,4.80
2018-12-11T12:21:53.492Z,4.70
2018-12-11T12:24:21.172Z,4.70
2018-12-11T12:26:48.666Z,4.70
2018-12-11T12:29:16.232Z,4.80
2018-12-11T12:31:43.856Z,4.80
2018-12-11T12:34:11.832Z,4.90
2018-12-11T12:36:39.458Z,4.90
2018-12-11T12:39:07.568Z,4.90
2018-12-11T12:41:35.153Z,5.00
2018-12-11T12:44:02.670Z,5.00
2018-12-11T12:46:30.428Z,5.00
2018-12-11T12:48:57.938Z,5.10
2018-12-11T12:51:25.557Z,5.10
2018-12-11T12:53:53.049Z,5.20
2018-12-11T12:56:20.673Z,5.30
2018-12-11T12:58:48.189Z,5.30
2018-12-11T13:01:15.785Z,5.30
2018-12-11T13:03:43.731Z,5.40
2018-12-11T13:06:11.209Z,5.30
2018-12-11T13:08:38.777Z,5.30
2018-12-11T13:11:06.405Z,5.30
2018-12-11T13:13:33.898Z,5.20
2018-12-11T13:16:01.411Z,5.10
2018-12-11T13:18:28.984Z,5.10
2018-12-11T13:20:56.507Z,5.00
2018-12-11T13:23:24.025Z,5.10
2018-12-11T13:25:51.732Z,5.10
2018-12-11T13:28:19.249Z,5.10
2018-12-11T13:30:46.875Z,5.10
2018-12-11T13:33:14.377Z,5.20
2018-12-11T13:35:41.992Z,5.30
2018-12-11T13:38:09.521Z,5.30
2018-12-11T13:40:37.535Z,5.40
2018-12-11T13:43:05.332Z,5.40
2018-12-11T13:45:32.865Z,5.50
2018-12-11T13:48:00.645Z,5.50
2018-12-11T13:50:28.269Z,5.50
2018-12-11T13:52:55.785Z,5.50
2018-12-11T13:55:23.331Z,5.40
2018-12-11T13:57:50.943Z,5.40
2018-12-11T14:00:18.468Z,5.40
2018-12-11T14:02:45.981Z,5.40
2018-12-11T14:05:13.672Z,5.40
2018-12-11T14:07:41.197Z,5.40
2018-12-11T14:10:08.792Z,5.40
2018-12-11T14:12:36.454Z,5.40
2018-12-11T14:15:05.081Z,5.50
2018-12-11T14:17:32.594Z,5.50
2018-12-11T14:20:00.301Z,5.50
2018-12-11T14:22:27.805Z,5.50
2018-12-11T14:24:55.329Z,5.50
2018-12-11T14:27:22.836Z,5.50
2018-12-11T14:29:50.508Z,5.50
2018-12-11T14:32:18.300Z,5.50
2018-12-11T14:34:45.776Z,5.40
2018-12-11T14:37:13.914Z,5.40
2018-12-11T14:39:41.548Z,5.30
2018-12-11T14:42:09.061Z,5.20
2018-12-11T14:44:36.554Z,5.10
2018-12-11T14:47:04.172Z,5.10
2018-12-11T14:49:31.689Z,5.00
2018-12-11T14:51:59.213Z,5.00
2018-12-11T14:54:26.840Z,4.90
2018-12-11T14:56:54.317Z,4.90
2018-12-11T14:59:21.847Z,4.90
2018-12-11T15:01:49.352Z,4.90
2018-12-11T15:04:16.998Z,4.90
2018-12-11T15:06:44.537Z,4.90
2018-12-11T15:09:17.824Z,4.90
2018-12-11T15:11:45.388Z,4.90
2018-12-11T15:14:12.946Z,4.80
2018-12-11T15:16:40.603Z,4.90
2018-12-11T15:19:08.201Z,4.90
2018-12-11T15:21:35.931Z,4.90
2018-12-11T15:24:03.639Z,4.90
2018-12-11T15:26:31.152Z,4.90
2018-12-11T15:28:58.757Z,4.90
2018-12-11T15:31:26.383Z,4.90
2018-12-11T15:33:53.966Z,4.90
2018-12-11T15:36:21.521Z,4.90
2018-12-11T15:38:49.021Z,4.90
2018-12-11T15:41:16.724Z,4.90
2018-12-11T15:43:44.263Z,4.90
2018-12-11T15:46:11.976Z,4.90
2018-12-11T15:48:39.589Z,4.90
2018-12-11T15:51:07.114Z,4.90
2018-12-11T15:53:34.620Z,4.90
2018-12-11T15:56:02.158Z,4.90
2018-12-11T15:58:29.666Z,4.90
2018-12-11T16:00:57.226Z,4.90
2018-12-11T16:03:25.036Z,4.90
2018-12-11T16:05:52.513Z,4.90
2018-12-11T16:08:20.057Z,4.90
2018-12-11T16:10:47.612Z,4.90
2018-12-11T16:13:15.170Z,4.90
2018-12-11T16:15:42.728Z,4.90
2018-12-11T16:18:10.401Z,4.90
2018-12-11T16:20:37.909Z,4.80
2018-12-11T16:23:05.410Z,4.80
2018-12-11T16:25:32.960Z,4.80
2018-12-11T16:28:00.474Z,4.80
2018-12-11T16:30:28.082Z,4.80
2018-12-11T16:32:55.581Z,4.80
2018-12-11T16:35:23.231Z,4.80
2018-12-11T16:37:50.995Z,4.80
2018-12-11T16:40:18.574Z,4.90
2018-12-11T16:42:46.245Z,4.90
2018-12-11T16:45:13.765Z,4.90
2018-12-11T16:47:41.402Z,4.90
2018-12-11T16:50:09.006Z,4.90
2018-12-11T16:52:36.673Z,4.90
2018-12-11T16:55:04.281Z,4.90
2018-12-11T16:57:31.785Z,4.90
2018-12-11T16:59:59.297Z,4.90
2018-12-11T17:02:26.824Z,4.90
2018-12-11T17:04:54.321Z,4.90
2018-12-11T17:07:22.114Z,4.90
2018-12-11T17:09:49.761Z,4.90
2018-12-11T17:12:17.293Z,4.90
2018-12-11T17:14:44.897Z,4.90
2018-12-11T17:17:12.515Z,4.90
2018-12-11T17:19:40.001Z,4.90
2018-12-11T17:22:07.637Z,4.90
2018-12-11T17:24:35.122Z,4.90
2018-12-11T17:27:02.642Z,4.90
2018-12-11T17:29:30.311Z,4.90
2018-12-11T17:31:57.793Z,4.90
2018-12-11T17:34:25.357Z,4.90
2018-12-11T17:36:52.911Z,4.90
2018-12-11T17:39:20.552Z,4.90
2018-12-11T17:41:48.066Z,4.90
2018-12-11T17:44:15.794Z,4.90
2018-12-11T17:46:43.323Z,4.90
2018-12-11T17:49:10.985Z,4.90
2018-12-11T17:51:38.601Z,4.90
2018-12-11T17:54:06.133Z,4.90
2018-12-11T17:56:34.298Z,4.90
2018-12-11T17:59:02.090Z,5.00
2018-12-11T18:01:31.298Z,5.00
2018-12-11T18:03:58.905Z,5.00
2018-12-11T18:06:26.458Z,5.00
2018-12-11T18:08:53.958Z,5.00
2018-12-11T18:11:21.481Z,5.00
2018-12-11T18:13:48.980Z,4.90
2018-12-11T18:16:16.508Z,4.90
2018-12-11T18:18:44.155Z,4.90
2018-12-11T18:21:11.738Z,4.90
2018-12-11T18:23:39.273Z,4.90
2018-12-11T18:26:06.789Z,4.90
2018-12-11T18:28:34.314Z,4.90
2018-12-11T18:31:01.955Z,5.00
2018-12-11T18:33:29.602Z,5.00
2018-12-11T18:35:57.138Z,5.00
2018-12-11T18:38:24.869Z,5.00
2018-12-11T18:40:52.375Z,5.00
2018-12-11T18:43:19.903Z,4.90
2018-12-11T18:45:47.429Z,4.90
2018-12-11T18:48:15.024Z,4.90
2018-12-11T18:50:42.616Z,4.90
2018-12-11T18:53:10.104Z,4.90
2018-12-11T18:55:37.634Z,4.80
2018-12-11T18:58:05.193Z,4.80
2018-12-11T19:00:32.755Z,4.80
2018-12-11T19:03:00.268Z,4.70
2018-12-11T19:05:27.973Z,4.70
2018-12-11T19:07:55.525Z,4.70
2018-12-11T19:10:23.337Z,4.60
2018-12-11T19:12:50.870Z,4.60
2018-12-11T19:15:18.405Z,4.50
2018-12-11T19:17:46.009Z,4.50
2018-12-11T19:20:13.702Z,4.50
2018-12-11T19:22:41.232Z,4.40
2018-12-11T19:25:12.245Z,4.40
2018-12-11T19:27:39.901Z,4.40
2018-12-11T19:30:07.754Z,4.40
2018-12-11T19:32:35.248Z,4.40
2018-12-11T19:35:04.329Z,4.40
2018-12-11T19:37:32.271Z,4.40
2018-12-11T19:40:02.259Z,4.40
2018-12-11T19:42:29.453Z,4.50
2018-12-11T19:44:57.018Z,4.50
2018-12-11T19:47:24.593Z,4.50
2018-12-11T19:49:52.238Z,4.40
2018-12-11T19:52:19.782Z,4.40
2018-12-11T19:54:47.456Z,4.40
2018-12-11T19:57:15.151Z,4.40
2018-12-11T19:59:42.667Z,4.40
2018-12-11T20:02:10.214Z,4.40
2018-12-11T20:04:37.881Z,4.50
2018-12-11T20:07:05.404Z,4.50
2018-12-11T20:09:32.929Z,4.50
2018-12-11T20:12:00.557Z,4.50
2018-12-11T20:14:28.109Z,4.50
2018-12-11T20:16:55.610Z,4.50
2018-12-11T20:19:23.138Z,4.50
2018-12-11T20:21:50.643Z,4.40
2018-12-11T20:24:18.240Z,4.40
2018-12-11T20:26:45.769Z,4.40
2018-12-11T20:29:13.342Z,4.50
2018-12-11T20:31:40.856Z,4.40
2018-12-11T20:34:08.394Z,4.40
2018-12-11T20:36:36.032Z,4.40
2018-12-11T20:39:04.753Z,4.40
2018-12-11T20:41:32.242Z,4.30
2018-12-11T20:43:59.794Z,4.40
2018-12-11T20:46:27.417Z,4.40
2018-12-11T20:48:55.004Z,4.40
2018-12-11T20:51:22.564Z,4.40
2018-12-11T20:53:50.108Z,4.40
2018-12-11T20:56:17.678Z,4.40
2018-12-11T20:58:45.188Z,4.40
2018-12-11T21:01:12.715Z,4.40
2018-12-11T21:03:40.246Z,4.40
2018-12-11T21:06:07.760Z,4.40
2018-12-11T21:08:35.525Z,4.50
2018-12-11T21:11:03.086Z,5.50
2018-12-11T21:13:30.662Z,4.50
2018-12-11T21:15:58.305Z,4.50
2018-12-11T21:18:25.964Z,4.50
2018-12-11T21:20:53.627Z,4.60
2018-12-11T21:23:21.184Z,4.60
2018-12-11T21:25:48.777Z,4.60
2018-12-11T21:28:16.395Z,4.60
2018-12-11T21:30:43.917Z,4.60
2018-12-11T21:33:11.624Z,4.60
2018-12-11T21:35:39.117Z,4.60
2018-12-11T21:38:06.623Z,4.60
2018-12-11T21:40:34.204Z,4.60
2018-12-11T21:43:01.721Z,4.70
2018-12-11T21:45:29.242Z,4.60
2018-12-11T21:47:56.738Z,4.60
2018-12-11T21:50:24.261Z,4.60
2018-12-11T21:52:51.765Z,4.60
2018-12-11T21:55:19.305Z,4.70
2018-12-11T21:57:46.823Z,4.70
2018-12-11T22:00:14.337Z,4.70
2018-12-11T22:02:41.832Z,4.70
2018-12-11T22:05:09.362Z,4.70
2018-12-11T22:07:36.884Z,4.70
2018-12-11T22:10:05.338Z,4.70
2018-12-11T22:12:33.040Z,4.70
2018-12-11T22:15:00.548Z,4.70
2018-12-11T22:17:28.062Z,4.70
2018-12-11T22:19:55.563Z,4.70
2018-12-11T22:22:23.104Z,4.70
2018-12-11T22:24:50.698Z,4.70
2018-12-11T22:27:18.211Z,4.80
2018-12-11T22:29:45.781Z,4.80
2018-12-11T22:32:13.513Z,4.70
2018-12-11T22:34:41.068Z,4.70
2018-12-11T22:37:08.561Z,4.70
2018-12-11T22:39:36.118Z,4.70
2018-12-11T22:42:03.681Z,4.60
2018-12-11T22:44:31.193Z,4.60
2018-12-11T22:46:58.703Z,4.60
2018-12-11T22:49:26.312Z,4.70
2018-12-11T22:51:53.911Z,4.60
2018-12-11T22:54:21.703Z,4.60
2018-12-11T22:56:49.305Z,4.60
2018-12-11T22:59:16.821Z,4.60
2018-12-11T23:01:44.337Z,4.60
2018-12-11T23:04:11.853Z,4.60
2018-12-11T23:06:39.370Z,4.60
2018-12-11T23:09:07.785Z,4.50
2018-12-11T23:11:35.405Z,4.60
2018-12-11T23:14:02.941Z,4.50
2018-12-11T23:16:30.436Z,4.50
2018-12-11T23:18:58.080Z,4.50
2018-12-11T23:21:25.692Z,4.40
2018-12-11T23:23:53.328Z,4.40
2018-12-11T23:26:20.848Z,4.50
2018-12-11T23:28:48.401Z,4.50
2018-12-11T23:31:15.901Z,4.50
2018-12-11T23:33:43.504Z,4.50
2018-12-11T23:36:11.021Z,4.40
2018-12-11T23:38:38.722Z,4.40
2018-12-11T23:41:06.336Z,4.30
2018-12-11T23:43:34.083Z,4.30
2018-12-11T23:46:01.560Z,4.30
2018-12-11T23:48:29.204Z,4.30
2018-12-11T23:50:56.721Z,4.30
2018-12-11T23:53:24.397Z,4.30
2018-12-11T23:55:51.920Z,4.30
2018-12-11T23:58:19.537Z,4.30
